Time;durP1;ratioP1;P1;durP2;ratioP2;P2;SDS_P1;SDS_P2;PMS_P1;PMS_P2;Temp;Humidity;BMP_temperature;BMP_pressure;BME280_temperature;BME280_humidity;BME280_pressure;Samples;Min_cycle;Max_cycle;Signal;HPM_P1;HPM_P2
2022/08/31 00:04:24;;;;;;;2.72;1.70;;;24.30;63.30;;;;;;5030853;28;20108;-68
2022/08/31 00:06:50;;;;;;;2.72;1.20;;;24.30;63.30;;;;;;5030938;28;20109;-68
2022/08/31 00:09:15;;;;;;;3.78;1.55;;;24.30;63.30;;;;;;5031843;28;20104;-68
2022/08/31 00:11:41;;;;;;;2.00;1.30;;;24.30;63.30;;;;;;5032160;28;20032;-68
2022/08/31 00:14:07;;;;;;;2.78;1.20;;;24.30;63.30;;;;;;5032031;28;20029;-68
2022/08/31 00:16:36;;;;;;;5.18;1.83;;;24.30;63.30;;;;;;5030684;28;20030;-68
2022/08/31 00:19:01;;;;;;;3.17;1.33;;;24.30;63.30;;;;;;5030412;28;20087;-68
2022/08/31 00:21:27;;;;;;;2.05;1.50;;;24.30;64.30;;;;;;5031999;28;20595;-68
2022/08/31 00:23:53;;;;;;;3.13;1.40;;;24.30;63.30;;;;;;5050921;28;20544;-68
2022/08/31 00:26:19;;;;;;;2.20;1.25;;;24.30;63.30;;;;;;5034263;28;20036;-69
2022/08/31 00:28:45;;;;;;;5.22;1.60;;;24.30;63.20;;;;;;5050791;28;20067;-68
2022/08/31 00:31:11;;;;;;;2.97;1.50;;;24.30;63.30;;;;;;5053915;28;20056;-68
2022/08/31 00:33:36;;;;;;;1.63;1.35;;;24.30;63.30;;;;;;5054255;28;20021;-68
2022/08/31 00:36:07;;;;;;;1.75;1.20;;;24.30;63.30;;;;;;5054136;28;20037;-68
2022/08/31 00:38:32;;;;;;;1.60;1.25;;;24.30;63.20;;;;;;5054131;28;20028;-68
2022/08/31 00:40:58;;;;;;;4.00;1.60;;;24.30;63.20;;;;;;5037496;28;20029;-68
2022/08/31 00:43:47;;;;;;;1.80;1.20;;;24.30;63.20;;;;;;5053895;28;20075;-68
2022/08/31 00:46:18;;;;;;;4.47;1.52;;;24.30;63.20;;;;;;5053914;28;20033;-68
2022/08/31 00:48:45;;;;;;;3.10;1.52;;;24.30;63.20;;;;;;5053725;28;20483;-68
2022/08/31 00:51:11;;;;;;;3.58;1.45;;;24.30;63.20;;;;;;5037334;28;20099;-68
2022/08/31 00:53:36;;;;;;;2.60;1.70;;;24.30;63.20;;;;;;5037423;28;20024;-68
2022/08/31 00:56:02;;;;;;;2.88;1.50;;;24.30;63.20;;;;;;5053579;28;20033;-68
2022/08/31 00:58:28;;;;;;;2.50;1.30;;;24.30;63.20;;;;;;5053744;28;20102;-68
2022/08/31 01:00:53;;;;;;;1.83;1.40;;;24.30;63.20;;;;;;5026843;28;20025;-68
2022/08/31 01:03:20;;;;;;;3.42;1.50;;;24.30;63.20;;;;;;5034661;28;20017;-68
2022/08/31 01:05:46;;;;;;;1.50;1.40;;;24.30;63.20;;;;;;5034815;28;20021;-68
2022/08/31 01:08:12;;;;;;;3.13;1.20;;;24.30;63.20;;;;;;5033527;28;20041;-68
2022/08/31 01:10:39;;;;;;;4.32;1.30;;;24.30;64.30;;;;;;5033868;28;20029;-68
2022/08/31 01:13:04;;;;;;;1.73;1.33;;;24.30;63.30;;;;;;5033585;28;20558;-68
2022/08/31 01:15:30;;;;;;;4.32;1.50;;;24.30;63.30;;;;;;5033337;28;20029;-68
2022/08/31 01:17:58;;;;;;;2.17;1.25;;;24.30;63.30;;;;;;5034635;28;20021;-68
2022/08/31 01:20:31;;;;;;;2.40;1.40;;;24.30;63.40;;;;;;5033238;28;20024;-68
2022/08/31 01:23:23;;;;;;;3.85;1.40;;;24.30;63.30;;;;;;5044821;28;20024;-68
2022/08/31 01:25:48;;;;;;;2.17;1.77;;;24.30;63.30;;;;;;5054074;28;20048;-68
2022/08/31 01:28:14;;;;;;;2.42;1.20;;;24.30;63.30;;;;;;5053102;28;20033;-68
2022/08/31 01:30:40;;;;;;;2.97;1.35;;;24.30;63.30;;;;;;5053866;28;20507;-68
2022/08/31 01:33:06;;;;;;;2.08;1.23;;;24.30;63.30;;;;;;5036567;28;20025;-68
2022/08/31 01:35:32;;;;;;;2.20;1.20;;;24.30;63.30;;;;;;5036558;28;20025;-68
2022/08/31 01:37:58;;;;;;;2.38;1.30;;;24.30;63.30;;;;;;5053221;28;20075;-68
2022/08/31 01:40:34;;;;;;;3.15;1.52;;;24.30;63.30;;;;;;5054320;28;20021;-68
2022/08/31 01:42:59;;;;;;;1.63;1.20;;;24.30;63.20;;;;;;5054288;28;20019;-68
2022/08/31 01:45:25;;;;;;;5.15;1.25;;;24.30;63.30;;;;;;5052648;28;20100;-68
2022/08/31 01:47:51;;;;;;;3.00;1.30;;;24.30;63.30;;;;;;5054050;28;20060;-68
2022/08/31 01:50:16;;;;;;;1.42;1.33;;;24.30;63.20;;;;;;5053921;28;20471;-68
2022/08/31 01:52:42;;;;;;;1.10;1.00;;;24.30;63.20;;;;;;5052717;28;20037;-68
2022/08/31 01:55:08;;;;;;;2.47;1.33;;;24.30;63.30;;;;;;5053867;28;20065;-68
2022/08/31 01:57:33;;;;;;;1.27;1.15;;;24.30;63.30;;;;;;5052473;28;20454;-68
2022/08/31 02:00:00;;;;;;;1.75;1.10;;;24.30;63.30;;;;;;5050635;28;20092;-68
2022/08/31 02:02:26;;;;;;;1.58;1.10;;;24.30;63.30;;;;;;5032440;28;20025;-68
2022/08/31 02:04:51;;;;;;;1.90;1.33;;;24.30;63.30;;;;;;5033793;28;20076;-68
2022/08/31 02:07:17;;;;;;;1.20;0.90;;;24.30;63.30;;;;;;5033681;28;20327;-68
2022/08/31 02:09:43;;;;;;;1.45;1.35;;;24.30;63.30;;;;;;5033732;28;20030;-68
2022/08/31 02:12:08;;;;;;;1.35;1.25;;;24.30;63.30;;;;;;5032785;28;20030;-68
2022/08/31 02:14:34;;;;;;;1.23;1.10;;;24.30;63.30;;;;;;5033400;28;20032;-68
2022/08/31 02:16:59;;;;;;;2.05;1.30;;;24.30;63.30;;;;;;5032501;28;20056;-68
2022/08/31 02:19:25;;;;;;;1.83;1.35;;;24.30;63.30;;;;;;5032002;28;20568;-68
2022/08/31 02:21:51;;;;;;;1.50;1.40;;;24.30;63.30;;;;;;5034389;28;20079;-68
2022/08/31 02:24:16;;;;;;;2.17;1.10;;;24.30;63.30;;;;;;5052009;28;20107;-68
2022/08/31 02:26:42;;;;;;;3.83;1.20;;;24.30;63.30;;;;;;5052076;28;20120;-68
2022/08/31 02:29:07;;;;;;;4.20;1.10;;;24.30;63.40;;;;;;5053076;28;20582;-68
2022/08/31 02:31:33;;;;;;;2.33;1.27;;;24.30;63.50;;;;;;5052953;28;20426;-68
2022/08/31 02:33:59;;;;;;;8.90;1.20;;;24.30;63.50;;;;;;5053186;28;20103;-68
2022/08/31 02:36:25;;;;;;;2.10;1.30;;;24.30;63.50;;;;;;5052796;28;20040;-68
2022/08/31 02:38:50;;;;;;;4.25;1.35;;;24.30;63.50;;;;;;5052087;28;20092;-69
2022/08/31 02:41:17;;;;;;;1.65;1.23;;;24.30;63.50;;;;;;5053001;28;20045;-69
2022/08/31 02:43:43;;;;;;;6.47;1.15;;;24.30;63.50;;;;;;5052937;28;20025;-69
2022/08/31 02:46:09;;;;;;;2.40;1.30;;;24.30;63.50;;;;;;5051562;28;20104;-69
2022/08/31 02:48:34;;;;;;;3.28;1.65;;;24.30;63.60;;;;;;5052950;28;20104;-69
2022/08/31 02:51:05;;;;;;;2.38;1.30;;;24.30;63.50;;;;;;5051703;28;20475;-69
2022/08/31 02:53:31;;;;;;;1.52;1.15;;;24.30;63.50;;;;;;5052232;28;20017;-69
2022/08/31 02:55:56;;;;;;;4.32;1.30;;;24.30;63.60;;;;;;5051388;28;20033;-69
2022/08/31 02:58:22;;;;;;;2.67;1.40;;;24.30;63.50;;;;;;5052459;28;20036;-69
2022/08/31 03:00:47;;;;;;;1.67;1.25;;;24.30;63.50;;;;;;5043039;28;20029;-69
2022/08/31 03:03:13;;;;;;;3.00;1.73;;;24.30;63.50;;;;;;5045491;28;20029;-68
2022/08/31 03:05:39;;;;;;;1.55;1.33;;;24.30;63.60;;;;;;5051827;28;20058;-69
2022/08/31 03:08:05;;;;;;;2.83;1.25;;;24.30;63.60;;;;;;5051687;28;20029;-69
2022/08/31 03:10:31;;;;;;;2.05;1.20;;;24.30;63.60;;;;;;5052951;28;20503;-69
2022/08/31 03:12:56;;;;;;;2.67;1.10;;;24.30;63.70;;;;;;5051662;28;20032;-69
2022/08/31 03:15:23;;;;;;;3.70;1.35;;;24.30;63.60;;;;;;5051748;28;20048;-69
2022/08/31 03:17:48;;;;;;;16.10;1.63;;;24.30;63.70;;;;;;5051714;28;20017;-69
2022/08/31 03:20:14;;;;;;;5.45;1.20;;;24.30;63.80;;;;;;5035184;28;20027;-69
2022/08/31 03:22:40;;;;;;;3.50;1.27;;;24.30;63.70;;;;;;5052886;28;20356;-69
2022/08/31 03:25:06;;;;;;;1.48;1.17;;;24.30;63.70;;;;;;5051821;28;20037;-68
2022/08/31 03:27:32;;;;;;;4.82;1.42;;;24.30;63.80;;;;;;5050571;28;20021;-68
2022/08/31 03:29:58;;;;;;;5.65;1.55;;;24.30;63.80;;;;;;5043995;28;20025;-68
2022/08/31 03:32:26;;;;;;;5.35;1.27;;;24.30;63.80;;;;;;5031453;28;20117;-69
2022/08/31 03:34:55;;;;;;;6.30;1.65;;;24.30;63.70;;;;;;5032766;28;20030;-69
2022/08/31 03:37:21;;;;;;;12.27;1.73;;;24.30;63.90;;;;;;5032521;28;20379;-69
2022/08/31 03:39:47;;;;;;;14.07;1.50;;;24.30;63.80;;;;;;5031596;28;20018;-69
2022/08/31 03:42:13;;;;;;;2.33;1.27;;;24.30;63.80;;;;;;5031489;28;20030;-69
2022/08/31 03:44:38;;;;;;;4.60;1.20;;;24.30;63.70;;;;;;5032595;28;20033;-69
2022/08/31 03:47:04;;;;;;;2.80;1.15;;;24.30;63.70;;;;;;5032749;28;20100;-69
2022/08/31 03:49:30;;;;;;;5.20;1.15;;;24.30;63.70;;;;;;5031058;28;20026;-70
2022/08/31 03:51:55;;;;;;;6.88;1.25;;;24.30;63.70;;;;;;5030998;28;20075;-69
2022/08/31 03:54:21;;;;;;;2.50;1.13;;;24.30;63.90;;;;;;5030281;28;20448;-69
2022/08/31 03:56:47;;;;;;;6.57;1.50;;;24.30;63.80;;;;;;5030220;28;20064;-69
2022/08/31 03:59:13;;;;;;;4.43;1.40;;;24.30;63.90;;;;;;5029023;28;20323;-69
2022/08/31 04:01:38;;;;;;;3.00;1.40;;;24.30;63.80;;;;;;5011870;28;20132;-69
2022/08/31 04:04:04;;;;;;;2.92;1.20;;;24.30;63.90;;;;;;5031306;28;20029;-69
2022/08/31 04:06:29;;;;;;;6.10;1.67;;;24.30;63.90;;;;;;5034507;28;20116;-69
2022/08/31 04:08:55;;;;;;;3.55;1.40;;;24.30;63.90;;;;;;5036003;28;20394;-69
2022/08/31 04:11:21;;;;;;;3.72;1.42;;;24.30;63.80;;;;;;5033662;28;20040;-69
2022/08/31 04:13:46;;;;;;;4.68;1.30;;;24.30;63.90;;;;;;5034590;28;20080;-69
2022/08/31 04:16:14;;;;;;;4.50;1.30;;;24.30;63.90;;;;;;5035629;28;20491;-69
2022/08/31 04:18:40;;;;;;;9.10;1.60;;;24.30;63.90;;;;;;5034463;28;20028;-69
2022/08/31 04:21:15;;;;;;;1.38;1.23;;;24.30;63.90;;;;;;5034581;28;20025;-69
2022/08/31 04:23:41;;;;;;;5.35;1.20;;;24.30;63.90;;;;;;5051838;28;20021;-69
2022/08/31 04:26:14;;;;;;;8.30;1.23;;;24.30;63.80;;;;;;5055336;28;20033;-69
2022/08/31 04:28:40;;;;;;;2.67;1.10;;;24.30;63.80;;;;;;5054273;28;20525;-69
2022/08/31 04:31:08;;;;;;;3.95;1.40;;;24.30;63.90;;;;;;5055411;28;20057;-69
2022/08/31 04:33:37;;;;;;;1.90;1.00;;;24.30;63.90;;;;;;5055456;28;20039;-68
2022/08/31 04:36:13;;;;;;;4.35;1.58;;;24.30;63.80;;;;;;5054018;28;20029;-69
2022/08/31 04:38:41;;;;;;;3.25;1.20;;;24.30;63.90;;;;;;5038184;28;20045;-68
2022/08/31 04:41:11;;;;;;;6.40;1.10;;;24.30;63.80;;;;;;5037764;28;20017;-68
2022/08/31 04:43:37;;;;;;;5.28;1.20;;;24.30;63.80;;;;;;5054010;28;20476;-68
2022/08/31 04:46:03;;;;;;;3.72;1.10;;;24.30;63.80;;;;;;5037506;28;20033;-68
2022/08/31 04:48:29;;;;;;;1.98;1.15;;;24.30;63.80;;;;;;5055108;28;20101;-69
2022/08/31 04:51:12;;;;;;;2.03;1.00;;;24.30;63.90;;;;;;5055165;28;20100;-69
2022/08/31 04:53:38;;;;;;;1.33;1.08;;;24.30;63.90;;;;;;5037364;28;20039;-69
2022/08/31 04:56:13;;;;;;;2.13;1.20;;;24.30;63.90;;;;;;5053810;28;20108;-68
2022/08/31 04:58:43;;;;;;;2.92;0.93;;;24.30;63.80;;;;;;5038332;28;20025;-68
2022/08/31 05:01:09;;;;;;;4.97;1.20;;;24.30;63.80;;;;;;5025232;28;20026;-68
2022/08/31 05:03:35;;;;;;;5.45;1.10;;;24.30;63.80;;;;;;5033698;28;20036;-68
2022/08/31 05:06:01;;;;;;;2.88;1.05;;;24.30;63.80;;;;;;5033605;28;20021;-68
2022/08/31 05:08:27;;;;;;;1.20;1.10;;;24.30;63.90;;;;;;5033537;28;20447;-69
2022/08/31 05:10:53;;;;;;;1.77;1.00;;;24.30;63.90;;;;;;5033770;28;20025;-68
2022/08/31 05:13:19;;;;;;;3.03;1.10;;;24.30;63.90;;;;;;5033572;28;20026;-68
2022/08/31 05:15:44;;;;;;;3.83;1.13;;;24.30;63.90;;;;;;5032984;28;20033;-69
2022/08/31 05:18:10;;;;;;;2.33;0.98;;;24.30;63.90;;;;;;5033557;28;20037;-68
2022/08/31 05:20:37;;;;;;;1.70;1.10;;;24.30;63.90;;;;;;5034577;28;20026;-68
2022/08/31 05:23:02;;;;;;;1.42;0.95;;;24.30;63.90;;;;;;5045179;28;20067;-68
2022/08/31 05:25:28;;;;;;;1.17;0.93;;;24.30;63.90;;;;;;5054381;28;20561;-69
2022/08/31 05:27:54;;;;;;;5.25;1.23;;;24.30;63.90;;;;;;5036315;28;20467;-69
2022/08/31 05:30:20;;;;;;;1.73;1.00;;;24.30;63.90;;;;;;5054212;28;20032;-69
2022/08/31 05:32:46;;;;;;;1.10;1.00;;;24.20;63.80;;;;;;5054244;28;20078;-68
2022/08/31 05:35:12;;;;;;;2.00;0.95;;;24.20;63.90;;;;;;5054285;28;20024;-69
2022/08/31 05:37:38;;;;;;;2.00;0.95;;;24.20;63.80;;;;;;5036196;28;20123;-69
2022/08/31 05:40:04;;;;;;;3.17;0.90;;;24.30;63.90;;;;;;5052966;28;20112;-69
2022/08/31 05:42:30;;;;;;;2.35;1.10;;;24.30;63.90;;;;;;5052825;28;20395;-68
2022/08/31 05:44:55;;;;;;;3.25;0.95;;;24.30;64.00;;;;;;5054244;28;20017;-68
2022/08/31 05:47:21;;;;;;;2.33;1.25;;;24.30;64.00;;;;;;5047924;28;20037;-68
2022/08/31 05:49:48;;;;;;;3.03;1.10;;;24.20;63.90;;;;;;5041615;28;20030;-68
2022/08/31 05:52:13;;;;;;;4.30;1.20;;;24.20;64.00;;;;;;5016908;28;20083;-69
2022/08/31 05:54:39;;;;;;;4.43;1.35;;;24.30;64.10;;;;;;5034537;28;20436;-68
2022/08/31 05:57:05;;;;;;;9.50;1.05;;;24.30;64.10;;;;;;5034600;28;20034;-69
2022/08/31 05:59:31;;;;;;;1.25;1.00;;;24.20;64.00;;;;;;5032932;28;20018;-69
2022/08/31 06:01:57;;;;;;;4.50;1.20;;;24.30;64.20;;;;;;5032973;28;20033;-68
2022/08/31 06:04:23;;;;;;;2.58;1.02;;;24.30;64.20;;;;;;5033207;28;20022;-68
2022/08/31 06:06:48;;;;;;;2.25;1.15;;;24.20;64.10;;;;;;5032709;28;20033;-69
2022/08/31 06:09:14;;;;;;;3.95;1.20;;;24.30;64.20;;;;;;5034610;28;20472;-69
2022/08/31 06:11:41;;;;;;;2.28;1.00;;;24.30;64.20;;;;;;5032737;28;20495;-69
2022/08/31 06:14:08;;;;;;;3.47;1.10;;;24.30;64.20;;;;;;5034255;28;20017;-68
2022/08/31 06:16:35;;;;;;;1.70;1.08;;;24.30;64.20;;;;;;5016488;28;20029;-68
2022/08/31 06:19:03;;;;;;;1.52;0.82;;;24.30;64.20;;;;;;5032826;28;20100;-67
2022/08/31 06:21:29;;;;;;;1.10;0.90;;;24.30;63.30;;;;;;5032682;28;20025;-68
2022/08/31 06:23:58;;;;;;;1.23;0.80;;;24.20;62.60;;;;;;5035339;28;20020;-67
2022/08/31 06:26:25;;;;;;;1.05;0.90;;;24.20;62.50;;;;;;5035827;28;20115;-67
2022/08/31 06:28:52;;;;;;;2.58;1.17;;;24.10;62.50;;;;;;5052470;28;20021;-67
2022/08/31 06:31:22;;;;;;;1.73;0.80;;;24.10;62.40;;;;;;5052387;28;20063;-67
2022/08/31 06:33:48;;;;;;;1.92;1.10;;;24.10;62.40;;;;;;5042027;28;20442;-67
2022/08/31 06:36:16;;;;;;;3.15;0.93;;;24.10;62.40;;;;;;5037613;28;20029;-67
2022/08/31 06:38:42;;;;;;;1.75;1.00;;;24.10;62.50;;;;;;5031934;28;20076;-67
2022/08/31 06:41:16;;;;;;;3.80;1.40;;;24.10;62.60;;;;;;5032104;28;20130;-67
2022/08/31 06:43:42;;;;;;;3.03;1.38;;;24.10;62.70;;;;;;5031935;28;20411;-67
2022/08/31 06:46:07;;;;;;;15.93;3.55;;;24.10;62.70;;;;;;5015479;28;20033;-67
2022/08/31 06:48:33;;;;;;;27.27;4.18;;;24.10;62.90;;;;;;5031103;28;20040;-67
2022/08/31 06:50:59;;;;;;;15.27;3.17;;;24.10;63.00;;;;;;5029689;28;20033;-67
2022/08/31 06:53:25;;;;;;;18.98;3.35;;;24.10;63.00;;;;;;5030645;28;20033;-67
2022/08/31 06:55:50;;;;;;;16.77;3.05;;;24.10;63.20;;;;;;5031966;28;20396;-67
2022/08/31 06:58:16;;;;;;;18.73;3.55;;;24.10;63.20;;;;;;5031904;28;20057;-67
2022/08/31 07:00:42;;;;;;;14.00;2.83;;;24.10;63.40;;;;;;5031667;28;20040;-67
2022/08/31 07:03:23;;;;;;;8.60;2.72;;;24.10;63.50;;;;;;5032751;28;20026;-67
2022/08/31 07:05:50;;;;;;;12.60;3.10;;;24.10;63.50;;;;;;5042999;28;20091;-67
2022/08/31 07:08:17;;;;;;;16.38;3.30;;;24.10;63.40;;;;;;5042254;28;20013;-67
2022/08/31 07:10:42;;;;;;;13.02;3.53;;;24.00;63.30;;;;;;5032726;28;20622;-67
2022/08/31 07:13:08;;;;;;;11.82;3.45;;;24.00;63.30;;;;;;5046823;28;20049;-67
2022/08/31 07:15:34;;;;;;;11.45;3.63;;;24.10;63.40;;;;;;5052472;28;20017;-68
2022/08/31 07:17:59;;;;;;;8.88;2.65;;;24.00;63.30;;;;;;5052204;28;20056;-67
2022/08/31 07:20:25;;;;;;;11.27;3.33;;;24.00;63.30;;;;;;5048440;28;20021;-67
2022/08/31 07:22:50;;;;;;;14.93;3.47;;;24.00;63.30;;;;;;5032477;28;20441;-67
2022/08/31 07:25:17;;;;;;;13.15;3.67;;;24.00;63.30;;;;;;5032571;28;20559;-67
2022/08/31 07:27:43;;;;;;;13.32;3.55;;;24.00;63.30;;;;;;5032309;28;20025;-67
2022/08/31 07:30:09;;;;;;;12.02;2.75;;;24.00;63.30;;;;;;5032328;28;20054;-67
2022/08/31 07:32:37;;;;;;;10.02;3.60;;;24.00;63.20;;;;;;5032243;28;20030;-67
2022/08/31 07:35:04;;;;;;;11.32;3.47;;;24.00;63.20;;;;;;5032323;28;20096;-67
2022/08/31 07:43:00;;;;;;;8.57;3.42;;;24.00;63.30;;;;;;5057927;28;20088;-67
2022/08/31 07:45:26;;;;;;;10.52;3.53;;;24.00;63.20;;;;;;5057499;28;20021;-67
2022/08/31 07:47:52;;;;;;;10.23;2.90;;;24.00;63.20;;;;;;5058408;28;20032;-67
2022/08/31 07:50:18;;;;;;;9.40;3.28;;;24.00;63.30;;;;;;5058819;28;20025;-67
2022/08/31 07:52:52;;;;;;;10.35;3.60;;;23.90;63.20;;;;;;5040956;28;20432;-67
2022/08/31 07:55:19;;;;;;;10.60;3.65;;;24.00;63.30;;;;;;5041992;28;20072;-67
2022/08/31 07:57:45;;;;;;;10.05;3.22;;;23.90;63.20;;;;;;5040936;28;20099;-67
2022/08/31 08:00:19;;;;;;;7.30;2.78;;;23.90;63.20;;;;;;5054265;28;20487;-67
2022/08/31 08:02:45;;;;;;;7.60;3.03;;;23.90;63.20;;;;;;5037231;28;20060;-67
2022/08/31 08:05:19;;;;;;;9.23;3.50;;;23.90;63.20;;;;;;5037578;28;20049;-67
2022/08/31 08:07:48;;;;;;;11.48;3.47;;;23.90;63.20;;;;;;5038703;28;20057;-67
2022/08/31 08:10:14;;;;;;;8.63;3.67;;;23.90;63.30;;;;;;5037529;28;20029;-67
2022/08/31 08:12:45;;;;;;;10.60;3.45;;;23.90;63.20;;;;;;5049667;28;20025;-67
2022/08/31 08:15:11;;;;;;;9.23;2.92;;;23.90;63.20;;;;;;5057424;28;20029;-67
2022/08/31 08:17:37;;;;;;;11.02;3.40;;;23.90;63.20;;;;;;5057180;28;20445;-67
2022/08/31 08:20:03;;;;;;;10.63;3.08;;;23.90;63.20;;;;;;5058465;28;20058;-67
2022/08/31 08:22:29;;;;;;;11.40;3.33;;;23.90;63.20;;;;;;5040585;28;20583;-67
2022/08/31 08:24:57;;;;;;;11.73;3.67;;;23.90;63.20;;;;;;5058364;28;20130;-67
2022/08/31 08:27:23;;;;;;;10.07;3.28;;;23.90;63.20;;;;;;5058414;28;20433;-67
2022/08/31 08:29:49;;;;;;;9.98;2.92;;;23.90;63.20;;;;;;5058219;28;20103;-67
2022/08/31 08:32:15;;;;;;;8.32;3.00;;;23.90;63.20;;;;;;5056850;28;20120;-67
2022/08/31 08:34:42;;;;;;;12.18;2.95;;;23.90;63.20;;;;;;5058288;28;20154;-67
2022/08/31 08:37:08;;;;;;;9.95;3.50;;;23.90;63.20;;;;;;5058249;28;20021;-67
2022/08/31 08:39:34;;;;;;;10.65;3.35;;;23.90;63.20;;;;;;5057120;28;20071;-67
2022/08/31 08:41:59;;;;;;;6.38;2.80;;;23.90;63.30;;;;;;5058173;28;20025;-67
2022/08/31 08:44:27;;;;;;;9.10;3.30;;;23.90;63.20;;;;;;5040317;28;20017;-67
2022/08/31 08:46:54;;;;;;;10.70;3.75;;;23.90;63.20;;;;;;5056787;28;20020;-67
2022/08/31 08:49:33;;;;;;;10.23;2.67;;;23.90;63.20;;;;;;5039817;28;20475;-67
2022/08/31 08:52:30;;;;;;;9.27;3.20;;;23.90;63.30;;;;;;5054917;28;20499;-67
2022/08/31 08:54:59;;;;;;;8.18;3.38;;;23.90;63.20;;;;;;5053856;28;20017;-67
2022/08/31 08:57:30;;;;;;;8.07;2.97;;;23.90;63.20;;;;;;5037306;28;20036;-67
2022/08/31 08:59:57;;;;;;;10.70;2.88;;;23.90;63.20;;;;;;5034467;28;20497;-67
2022/08/31 09:02:48;;;;;;;6.28;3.00;;;23.80;63.20;;;;;;5033871;28;20045;-67
2022/08/31 09:05:17;;;;;;;10.45;3.42;;;23.80;63.10;;;;;;5033504;28;20088;-67
2022/08/31 09:08:10;;;;;;;8.15;2.90;;;23.90;63.20;;;;;;5033747;28;20033;-68
2022/08/31 09:11:05;;;;;;;9.13;3.28;;;23.90;63.10;;;;;;5033776;28;20047;-67
2022/08/31 09:13:48;;;;;;;5.03;2.67;;;23.90;63.10;;;;;;5053950;28;20112;-67
2022/08/31 09:16:55;;;;;;;9.32;3.08;;;23.90;63.20;;;;;;5053190;28;20384;-67
2022/08/31 09:19:20;;;;;;;7.57;3.10;;;23.90;63.10;;;;;;5053983;28;20040;-67
2022/08/31 09:21:48;;;;;;;10.25;3.08;;;23.90;63.20;;;;;;5054440;28;20017;-67
2022/08/31 09:24:18;;;;;;;7.10;3.15;;;23.90;63.10;;;;;;5053372;28;20025;-67
2022/08/31 09:27:10;;;;;;;8.52;2.80;;;23.90;63.10;;;;;;5053374;28;20029;-67
2022/08/31 09:29:35;;;;;;;7.45;2.80;;;23.80;63.10;;;;;;5053234;28;20036;-67
2022/08/31 09:32:06;;;;;;;6.35;2.60;;;23.80;63.10;;;;;;5036051;28;20053;-67
2022/08/31 09:34:39;;;;;;;8.75;3.35;;;23.80;63.10;;;;;;5054275;28;20048;-67
2022/08/31 09:37:15;;;;;;;8.93;3.25;;;23.80;63.10;;;;;;5054520;28;20021;-67
2022/08/31 09:39:46;;;;;;;9.02;3.00;;;23.80;63.10;;;;;;5037655;28;20025;-67
2022/08/31 09:42:29;;;;;;;7.40;2.83;;;23.80;63.10;;;;;;5052990;28;20025;-67
2022/08/31 09:44:58;;;;;;;7.47;2.40;;;23.80;63.10;;;;;;5053897;28;20025;-67
2022/08/31 09:47:54;;;;;;;7.70;2.50;;;23.90;63.10;;;;;;5036874;28;20032;-68
2022/08/31 09:50:26;;;;;;;5.40;2.25;;;23.90;63.10;;;;;;5052789;28;20567;-67
2022/08/31 09:55:43;;;;;;;9.20;3.08;;;23.90;63.20;;;;;;5005127;28;20049;-67
2022/08/31 09:58:11;;;;;;;5.95;2.50;;;23.80;63.10;;;;;;5015215;28;20037;-67
2022/08/31 10:00:40;;;;;;;4.70;2.42;;;23.80;63.20;;;;;;5039322;28;20037;-67
2022/08/31 10:03:07;;;;;;;5.95;2.78;;;23.80;63.30;;;;;;5034289;28;20025;-67
2022/08/31 10:05:39;;;;;;;6.57;2.90;;;23.80;63.30;;;;;;5035151;28;20021;-67
2022/08/31 10:08:33;;;;;;;6.27;2.73;;;23.80;63.30;;;;;;5035683;28;20044;-67
2022/08/31 10:11:10;;;;;;;6.00;2.58;;;23.80;63.30;;;;;;5047489;28;20074;-67
2022/08/31 10:13:55;;;;;;;5.47;2.60;;;23.80;63.30;;;;;;4995508;28;20111;-67
2022/08/31 10:16:29;;;;;;;7.85;2.53;;;23.80;64.40;;;;;;4996248;28;20412;-67
2022/08/31 10:19:00;;;;;;;7.25;2.47;;;23.80;63.40;;;;;;5011695;28;20108;-67
2022/08/31 10:21:53;;;;;;;5.72;2.38;;;23.80;63.40;;;;;;4995699;28;20106;-67
2022/08/31 10:24:27;;;;;;;;;;;23.80;63.40;;;;;;4996961;28;20026;-67
2022/08/31 10:27:19;;;;;;;6.53;2.38;;;23.80;63.40;;;;;;5011455;28;19913;-67
2022/08/31 10:29:58;;;;;;;3.73;2.40;;;23.80;63.50;;;;;;4996101;28;20095;-67
2022/08/31 10:32:54;;;;;;;8.57;2.70;;;23.80;63.40;;;;;;5002853;28;20296;-67
2022/08/31 10:35:41;;;;;;;6.03;2.53;;;23.80;63.50;;;;;;5033163;28;20029;-67
2022/08/31 10:38:47;;;;;;;4.97;2.60;;;23.70;63.50;;;;;;5033439;28;20052;-67
2022/08/31 10:41:16;;;;;;;4.85;2.33;;;23.80;63.50;;;;;;5031652;28;20487;-67
2022/08/31 10:43:49;;;;;;;6.43;2.58;;;23.70;63.50;;;;;;5033260;28;20056;-67
2022/08/31 10:46:15;;;;;;;4.45;2.25;;;23.80;63.60;;;;;;5033094;28;20100;-67
2022/08/31 10:48:45;;;;;;;6.38;2.45;;;23.80;63.50;;;;;;5031755;28;20033;-67
2022/08/31 10:51:18;;;;;;;4.00;2.45;;;23.70;63.50;;;;;;5033007;28;20395;-67
2022/08/31 10:54:05;;;;;;;5.45;2.20;;;23.80;63.50;;;;;;5033043;28;20029;-67
2022/08/31 10:56:48;;;;;;;3.08;1.73;;;23.80;63.50;;;;;;5032766;28;20032;-67
2022/08/31 10:59:33;;;;;;;4.40;2.13;;;23.80;63.50;;;;;;5031725;28;20538;-67
2022/08/31 11:02:23;;;;;;;4.82;2.08;;;23.80;63.60;;;;;;5032565;28;20017;-67
2022/08/31 11:05:09;;;;;;;3.33;2.05;;;23.80;63.60;;;;;;5032943;28;20037;-67
2022/08/31 11:08:02;;;;;;;6.32;2.50;;;23.80;63.70;;;;;;5031763;28;20057;-67
2022/08/31 11:10:52;;;;;;;4.18;2.22;;;23.80;63.70;;;;;;5032260;28;20029;-67
2022/08/31 11:13:45;;;;;;;3.72;2.17;;;23.80;63.70;;;;;;5048418;28;20033;-67
2022/08/31 11:16:26;;;;;;;4.40;2.03;;;23.80;63.80;;;;;;5051417;28;20033;-67
2022/08/31 11:18:57;;;;;;;5.90;2.45;;;23.80;63.80;;;;;;5051497;28;20506;-67
2022/08/31 11:21:46;;;;;;;4.50;2.50;;;23.70;63.70;;;;;;5052406;28;20035;-67
2022/08/31 11:24:31;;;;;;;4.63;2.15;;;23.80;63.80;;;;;;5052268;28;20032;-67
2022/08/31 11:27:17;;;;;;;5.05;2.30;;;23.70;63.70;;;;;;5052329;28;20048;-67
2022/08/31 11:29:55;;;;;;;2.88;1.83;;;23.70;63.70;;;;;;5052455;28;20128;-67
2022/08/31 11:32:25;;;;;;;4.65;1.95;;;23.80;63.80;;;;;;5052109;28;20045;-67
2022/08/31 11:34:52;;;;;;;4.07;2.15;;;23.80;63.80;;;;;;5035065;28;20083;-67
2022/08/31 11:37:54;;;;;;;3.83;2.03;;;23.70;63.80;;;;;;5034353;28;20039;-67
2022/08/31 11:40:56;;;;;;;2.95;1.80;;;23.80;63.80;;;;;;5052062;28;20025;-67
2022/08/31 11:43:30;;;;;;;4.70;2.00;;;23.70;63.70;;;;;;5051703;28;20103;-67
2022/08/31 11:46:00;;;;;;;2.88;1.85;;;23.70;63.80;;;;;;5052089;28;20032;-67
2022/08/31 11:48:52;;;;;;;3.35;1.90;;;23.70;63.80;;;;;;5050796;28;20021;-67
2022/08/31 11:51:44;;;;;;;5.22;2.25;;;23.70;63.70;;;;;;5052138;28;20053;-67
2022/08/31 11:54:14;;;;;;;3.67;2.05;;;23.70;63.80;;;;;;5049644;28;20037;-67
2022/08/31 11:56:43;;;;;;;3.33;1.80;;;23.70;63.80;;;;;;5050843;28;20040;-67
2022/08/31 11:59:25;;;;;;;3.15;1.92;;;23.70;63.80;;;;;;5052059;28;20044;-67
2022/08/31 12:01:53;;;;;;;3.88;2.03;;;23.80;63.90;;;;;;5016161;28;20036;-67
2022/08/31 12:04:52;;;;;;;5.15;2.28;;;23.80;63.90;;;;;;5030954;28;20434;-67
2022/08/31 12:07:30;;;;;;;3.40;1.83;;;23.70;63.80;;;;;;5029748;28;20068;-67
2022/08/31 12:10:14;;;;;;;3.97;1.98;;;23.70;63.90;;;;;;5013307;28;20052;-67
2022/08/31 12:12:57;;;;;;;4.35;2.13;;;23.70;63.90;;;;;;5042005;28;20049;-67
2022/08/31 12:15:47;;;;;;;2.78;1.50;;;23.70;63.90;;;;;;5032883;28;20472;-67
2022/08/31 12:18:34;;;;;;;2.50;1.80;;;23.70;63.80;;;;;;5049736;28;20037;-67
2022/08/31 12:24:14;;;;;;;4.82;2.08;;;23.70;63.90;;;;;;5049384;28;20036;-67
2022/08/31 12:26:52;;;;;;;2.75;1.63;;;23.70;63.90;;;;;;5052735;28;20044;-67
2022/08/31 12:29:26;;;;;;;3.67;1.77;;;23.70;63.90;;;;;;5037591;28;20094;-67
2022/08/31 12:32:10;;;;;;;2.40;1.58;;;23.70;64.00;;;;;;5053293;28;20048;-67
2022/08/31 12:34:53;;;;;;;2.42;1.65;;;23.80;64.00;;;;;;5037629;28;20056;-67
2022/08/31 12:37:25;;;;;;;3.40;1.90;;;23.70;63.90;;;;;;5052792;28;20131;-67
2022/08/31 12:40:05;;;;;;;2.90;1.80;;;23.80;64.10;;;;;;5053381;28;20048;-67
2022/08/31 12:42:32;;;;;;;2.67;1.65;;;23.70;64.00;;;;;;5020348;28;20506;-67
2022/08/31 12:44:58;;;;;;;1.92;1.42;;;23.80;64.10;;;;;;5052017;28;20033;-67
2022/08/31 12:47:49;;;;;;;2.72;1.60;;;23.70;64.10;;;;;;5055138;28;20077;-67
2022/08/31 12:50:27;;;;;;;2.72;1.80;;;23.80;64.10;;;;;;5053559;28;20572;-67
2022/08/31 12:53:30;;;;;;;3.08;1.65;;;23.80;64.10;;;;;;5053890;28;20151;-67
2022/08/31 12:56:14;;;;;;;4.70;2.35;;;23.80;64.10;;;;;;5055058;28;20025;-67
2022/08/31 12:58:50;;;;;;;2.53;1.70;;;23.80;64.10;;;;;;5039263;28;20016;-67
2022/08/31 13:01:18;;;;;;;4.10;1.70;;;23.70;64.10;;;;;;5041561;28;20402;-67
2022/08/31 13:03:46;;;;;;;3.47;1.50;;;23.80;64.10;;;;;;5033782;28;20018;-67
2022/08/31 13:06:14;;;;;;;1.85;1.60;;;23.80;64.10;;;;;;5033429;28;20025;-67
2022/08/31 13:08:43;;;;;;;2.80;1.40;;;23.80;64.10;;;;;;5033866;28;20060;-67
2022/08/31 13:11:24;;;;;;;4.63;1.80;;;23.80;64.20;;;;;;5033727;28;20472;-67
2022/08/31 13:13:51;;;;;;;2.28;1.63;;;23.80;64.10;;;;;;5034705;28;20514;-67
2022/08/31 13:16:16;;;;;;;3.17;1.60;;;23.80;64.20;;;;;;5034662;28;20395;-67
2022/08/31 13:18:42;;;;;;;2.70;1.60;;;23.80;64.20;;;;;;5033507;28;20017;-67